createdAt,value
2022-10-21T00:00:16.055Z,98194.38
2022-10-21T00:02:21.828Z,98203.16
2022-10-21T00:04:26.849Z,98206.78
2022-10-21T00:06:31.657Z,98190.41
2022-10-21T00:08:39.983Z,98195.66
2022-10-21T00:10:44.715Z,98193.47
2022-10-21T00:12:49.505Z,98183.16
2022-10-21T00:14:56.453Z,98182.25
2022-10-21T00:17:02.467Z,98177.19
2022-10-21T00:19:07.226Z,98190.53
2022-10-21T00:21:14.883Z,98187.25
2022-10-21T00:23:19.633Z,98183.88
2022-10-21T00:25:27.114Z,98184.69
2022-10-21T00:27:31.914Z,98189.09
2022-10-21T00:29:38.037Z,98194.44
2022-10-21T00:31:42.818Z,98185.53
2022-10-21T00:33:47.583Z,98171.63
2022-10-21T00:35:55.999Z,98179.28
2022-10-21T00:38:00.858Z,98184.28
2022-10-21T00:40:05.778Z,98173.88
2022-10-21T00:42:19.180Z,98168.66
2022-10-21T00:44:25.302Z,98179.22
2022-10-21T00:46:39.905Z,98186.06
2022-10-21T00:48:56.976Z,98193.81
2022-10-21T00:51:06.019Z,98190.28
2022-10-21T00:53:13.802Z,98171.69
2022-10-21T00:55:18.623Z,98161.88
2022-10-21T00:57:28.380Z,98146.28
2022-10-21T00:59:38.756Z,98134.16
2022-10-21T01:01:43.562Z,98139.44
2022-10-21T01:03:48.463Z,98145.13
2022-10-21T01:05:53.421Z,98141.41
2022-10-21T01:07:59.038Z,98145.22
2022-10-21T01:10:03.954Z,98141.00
2022-10-21T01:12:17.585Z,98132.50
2022-10-21T01:14:51.190Z,98126.34
2022-10-21T01:17:15.511Z,98137.16
2022-10-21T01:20:04.856Z,98129.38
2022-10-21T01:22:19.068Z,98110.31
2022-10-21T01:24:51.367Z,98107.81
2022-10-21T01:27:13.721Z,98116.91
2022-10-21T01:29:38.495Z,98114.63
2022-10-21T01:31:50.081Z,98110.66
2022-10-21T01:34:01.319Z,98111.81
2022-10-21T01:36:17.005Z,98124.22
2022-10-21T01:38:26.942Z,98120.00
2022-10-21T01:40:37.395Z,98128.84
2022-10-21T01:42:45.866Z,98131.63
2022-10-21T01:44:57.780Z,98120.41
2022-10-21T01:47:09.514Z,98114.34
2022-10-21T01:49:20.449Z,98117.03
2022-10-21T01:51:28.920Z,98108.63
2022-10-21T01:53:39.682Z,98112.13
2022-10-21T01:55:46.067Z,98108.78
2022-10-21T01:57:57.575Z,98109.84
2022-10-21T02:00:04.369Z,98125.53
2022-10-21T02:02:13.513Z,98138.59
2022-10-21T02:04:22.632Z,98149.81
2022-10-21T02:06:27.912Z,98148.09
2022-10-21T02:08:32.990Z,98147.97
2022-10-21T02:10:41.347Z,98140.81
2022-10-21T02:12:48.792Z,98123.53
2022-10-21T02:14:56.205Z,98127.22
2022-10-21T02:17:02.120Z,98125.69
2022-10-21T02:19:15.894Z,98118.78
2022-10-21T02:21:26.538Z,98125.50
2022-10-21T02:23:41.076Z,98115.91
2022-10-21T02:25:49.028Z,98118.53
2022-10-21T02:27:54.345Z,98127.41
2022-10-21T02:30:01.863Z,98125.91
2022-10-21T02:32:19.173Z,98139.13
2022-10-21T02:34:36.734Z,98135.06
2022-10-21T02:36:51.399Z,98132.63
2022-10-21T02:39:02.972Z,98121.41
2022-10-21T02:41:12.545Z,98126.88
2022-10-21T02:43:22.564Z,98115.34
2022-10-21T02:45:27.364Z,98103.13
2022-10-21T02:47:32.202Z,98103.38
2022-10-21T02:49:39.537Z,98105.00
2022-10-21T02:51:45.257Z,98110.88
2022-10-21T02:53:50.035Z,98104.56
2022-10-21T02:55:54.882Z,98102.78
2022-10-21T02:58:00.006Z,98106.56
2022-10-21T03:00:04.581Z,98092.78
2022-10-21T03:02:09.361Z,98100.50
2022-10-21T03:04:14.066Z,98093.44
2022-10-21T03:06:21.649Z,98080.16
2022-10-21T03:08:26.519Z,98095.06
2022-10-21T03:10:31.330Z,98087.13
2022-10-21T03:12:36.168Z,98091.28
2022-10-21T03:14:40.868Z,98072.00
2022-10-21T03:16:45.672Z,98063.06
2022-10-21T03:18:50.718Z,98058.84
2022-10-21T03:20:55.538Z,98061.91
2022-10-21T03:23:02.910Z,98048.00
2022-10-21T03:25:08.890Z,98051.22
2022-10-21T03:27:13.639Z,98046.06
2022-10-21T03:29:18.466Z,98052.44
2022-10-21T03:31:26.179Z,98050.78
2022-10-21T03:33:31.013Z,98052.56
2022-10-21T03:35:35.821Z,98051.84
2022-10-21T03:37:40.799Z,98045.97
2022-10-21T03:39:48.170Z,98038.13
2022-10-21T03:41:52.890Z,98028.34
2022-10-21T03:43:57.775Z,98030.22
2022-10-21T03:46:02.621Z,98041.56
2022-10-21T03:48:07.621Z,98034.50
2022-10-21T03:50:15.093Z,98027.28
2022-10-21T03:52:23.989Z,98034.09
2022-10-21T03:54:30.068Z,98037.44
2022-10-21T03:56:37.491Z,98027.78
2022-10-21T03:58:42.595Z,98027.88
2022-10-21T04:00:47.133Z,98025.31
2022-10-21T04:02:52.146Z,98037.44
2022-10-21T04:04:56.888Z,98021.72
2022-10-21T04:07:01.657Z,98021.72
2022-10-21T04:09:06.778Z,98021.63
2022-10-21T04:11:11.390Z,98014.03
2022-10-21T04:13:18.809Z,98021.78
2022-10-21T04:15:23.560Z,98028.78
2022-10-21T04:17:29.790Z,98024.31
2022-10-21T04:19:34.621Z,98017.31
2022-10-21T04:21:39.484Z,98002.31
2022-10-21T04:23:44.577Z,98001.47
2022-10-21T04:25:49.392Z,97991.88
2022-10-21T04:27:54.290Z,97977.91
2022-10-21T04:30:01.602Z,97979.56
2022-10-21T04:32:06.555Z,97975.13
2022-10-21T04:34:11.306Z,97982.84
2022-10-21T04:36:16.018Z,97980.06
2022-10-21T04:38:20.796Z,97971.03
2022-10-21T04:40:31.373Z,97968.97
2022-10-21T04:42:36.134Z,97952.94
2022-10-21T04:44:41.529Z,97958.81
2022-10-21T04:46:48.968Z,97948.84
2022-10-21T04:48:53.727Z,97955.66
2022-10-21T04:50:59.161Z,97942.53
2022-10-21T04:53:03.985Z,97937.88
2022-10-21T04:55:09.902Z,97937.81
2022-10-21T04:57:14.679Z,97935.78
2022-10-21T04:59:19.425Z,97934.66
2022-10-21T05:01:27.608Z,97927.47
2022-10-21T05:03:35.236Z,97934.28
2022-10-21T05:05:40.107Z,97926.38
2022-10-21T05:07:44.886Z,97925.59
2022-10-21T05:09:49.597Z,97920.56
2022-10-21T05:11:54.403Z,97931.03
2022-10-21T05:13:59.268Z,97935.59
2022-10-21T05:16:05.417Z,97935.59
2022-10-21T05:18:10.279Z,97934.47
2022-10-21T05:20:17.778Z,97939.50
2022-10-21T05:22:22.457Z,97936.81
2022-10-21T05:24:27.421Z,97936.72
2022-10-21T05:26:32.211Z,97935.69
2022-10-21T05:28:37.000Z,97939.25
2022-10-21T05:33:06.723Z,97941.03
2022-10-21T05:35:12.156Z,97931.31
2022-10-21T05:37:19.735Z,97926.72
2022-10-21T05:39:24.490Z,97924.13
2022-10-21T05:41:31.664Z,97927.50
2022-10-21T05:43:36.456Z,97931.78
2022-10-21T05:45:41.234Z,97934.31
2022-10-21T05:47:46.316Z,97927.41
2022-10-21T05:49:50.829Z,97929.44
2022-10-21T05:51:55.558Z,97936.16
2022-10-21T05:54:03.902Z,97945.25
2022-10-21T05:56:10.803Z,97940.41
2022-10-21T05:58:15.569Z,97954.06
2022-10-21T06:00:20.541Z,97954.72
2022-10-21T06:02:25.960Z,97948.38
2022-10-21T06:04:32.891Z,97945.38
2022-10-21T06:06:40.957Z,97954.06
2022-10-21T06:08:45.771Z,97953.97
2022-10-21T06:10:53.214Z,97955.38
2022-10-21T06:12:57.934Z,97961.34
2022-10-21T06:15:02.808Z,97954.34
2022-10-21T06:17:07.735Z,97959.56
2022-10-21T06:19:12.479Z,97958.56
2022-10-21T06:21:17.464Z,97954.91
2022-10-21T06:23:22.284Z,97951.16
2022-10-21T06:25:27.044Z,97952.28
2022-10-21T06:27:34.433Z,97958.81
2022-10-21T06:29:39.164Z,97973.81
2022-10-21T06:31:43.872Z,97972.59
2022-10-21T06:33:48.623Z,97968.28
2022-10-21T06:35:53.427Z,97969.97
2022-10-21T06:37:58.145Z,97978.16
2022-10-21T06:40:04.656Z,97978.09
2022-10-21T06:42:09.393Z,97997.91
2022-10-21T06:44:20.561Z,97988.19
2022-10-21T06:46:29.475Z,97985.19
2022-10-21T06:48:34.296Z,97990.34
2022-10-21T06:50:40.147Z,97987.53
2022-10-21T06:52:44.987Z,97989.22
2022-10-21T06:54:50.727Z,97988.94
2022-10-21T06:56:55.600Z,97987.16
2022-10-21T06:59:01.914Z,97987.06
2022-10-21T07:01:27.430Z,97974.63
2022-10-21T07:03:38.409Z,97977.91
2022-10-21T07:05:43.225Z,97988.06
2022-10-21T07:07:48.169Z,97987.03
2022-10-21T07:09:53.097Z,97989.31
2022-10-21T07:11:58.245Z,97989.22
2022-10-21T07:14:02.821Z,98000.84
2022-10-21T07:16:10.198Z,98007.00
2022-10-21T07:18:17.520Z,98013.81
2022-10-21T07:20:22.249Z,98015.34
2022-10-21T07:22:26.999Z,98013.00
2022-10-21T07:24:31.733Z,98013.00
2022-10-21T07:26:37.487Z,98019.38
2022-10-21T07:28:46.962Z,98028.06
2022-10-21T07:30:51.864Z,98026.63
2022-10-21T07:32:56.604Z,98024.19
2022-10-21T07:35:03.955Z,98008.94
2022-10-21T07:37:08.917Z,98016.63
2022-10-21T07:39:16.973Z,98009.53
2022-10-21T07:41:25.752Z,98006.72
2022-10-21T07:43:30.583Z,98013.56
2022-10-21T07:45:35.386Z,98011.84
2022-10-21T07:47:40.389Z,98014.84
2022-10-21T07:49:45.380Z,98019.63
2022-10-21T07:51:53.933Z,98014.84
2022-10-21T07:54:02.699Z,98014.63
2022-10-21T07:56:10.359Z,98018.78
2022-10-21T07:58:15.123Z,98012.19
2022-10-21T08:00:19.978Z,97996.06
2022-10-21T08:02:26.479Z,98008.94
2022-10-21T08:04:33.452Z,98016.16
2022-10-21T08:06:38.718Z,98018.00
2022-10-21T08:08:46.913Z,98020.44
2022-10-21T08:10:52.433Z,98024.09
2022-10-21T08:12:58.156Z,98033.34
2022-10-21T08:15:03.036Z,98030.44
2022-10-21T08:17:07.778Z,98036.22
2022-10-21T08:19:17.981Z,98028.72
2022-10-21T08:21:22.737Z,98021.50
2022-10-21T08:23:28.937Z,98033.13
2022-10-21T08:25:36.521Z,98036.19
2022-10-21T08:27:41.378Z,98042.00
2022-10-21T08:29:50.316Z,98037.19
2022-10-21T08:31:55.459Z,98039.53
2022-10-21T08:34:00.388Z,98038.56
2022-10-21T08:36:08.681Z,98039.53
2022-10-21T08:38:14.351Z,98043.94
2022-10-21T08:40:19.815Z,98042.16
2022-10-21T08:42:28.367Z,98036.78
2022-10-21T08:44:40.632Z,98025.38
2022-10-21T08:46:50.234Z,98020.22
2022-10-21T08:49:01.829Z,98016.69
2022-10-21T08:51:08.982Z,98016.34
2022-10-21T08:53:19.116Z,98017.00
2022-10-21T08:55:26.908Z,98018.69
2022-10-21T08:57:37.474Z,98009.69
2022-10-21T08:59:43.414Z,98002.22
2022-10-21T09:01:57.552Z,97996.75
2022-10-21T09:04:09.142Z,97994.06
2022-10-21T09:06:24.411Z,97989.44
2022-10-21T09:08:37.833Z,97988.41
2022-10-21T09:10:56.374Z,97992.63
2022-10-21T09:13:08.659Z,98000.97
2022-10-21T09:15:25.493Z,97996.00
2022-10-21T09:17:56.344Z,97998.63
2022-10-21T09:20:07.235Z,98001.19
2022-10-21T09:22:35.258Z,98006.41
2022-10-21T09:24:49.138Z,98019.09
2022-10-21T09:26:55.915Z,98012.50
2022-10-21T09:29:05.627Z,98013.06
2022-10-21T09:31:18.527Z,98013.69
2022-10-21T09:33:27.308Z,98016.00
2022-10-21T09:35:39.449Z,98016.66
2022-10-21T09:37:48.752Z,98021.59
2022-10-21T09:40:02.954Z,98023.91
2022-10-21T09:42:12.488Z,98019.28
2022-10-21T09:44:30.661Z,98012.75
2022-10-21T09:47:00.106Z,98023.78
2022-10-21T09:51:37.157Z,98034.16
2022-10-21T09:53:54.142Z,98042.66
2022-10-21T09:56:05.590Z,98058.41
2022-10-21T09:58:10.351Z,98071.66
2022-10-21T10:00:18.176Z,98076.91
2022-10-21T10:02:33.772Z,98087.47
2022-10-21T10:04:41.854Z,98090.09
2022-10-21T10:06:49.460Z,98085.19
2022-10-21T10:08:54.330Z,98069.66
2022-10-21T10:11:19.746Z,98052.22
2022-10-21T10:13:29.233Z,98034.16
2022-10-21T10:15:41.728Z,98031.31
2022-10-21T10:17:49.500Z,98017.16
2022-10-21T10:20:20.478Z,98008.78
2022-10-21T10:22:32.557Z,98001.75
2022-10-21T10:24:40.639Z,98018.03
2022-10-21T10:26:55.882Z,98005.97
2022-10-21T10:29:06.095Z,97992.16
2022-10-21T10:31:13.625Z,97985.25
2022-10-21T10:33:22.514Z,97977.47
2022-10-21T10:35:32.778Z,97968.97
2022-10-21T10:37:50.288Z,97970.81
2022-10-21T10:40:03.643Z,97964.72
2022-10-21T10:42:12.771Z,97972.59
2022-10-21T10:44:32.234Z,97962.34
2022-10-21T10:46:50.551Z,97964.88
2022-10-21T10:48:57.326Z,97950.59
2022-10-21T10:51:05.627Z,97942.72
2022-10-21T10:53:37.739Z,97934.09
2022-10-21T10:55:45.510Z,97936.84
2022-10-21T10:58:11.406Z,97935.47
2022-10-21T11:00:23.152Z,97929.78
2022-10-21T11:02:44.565Z,97940.81
2022-10-21T11:05:08.382Z,97977.47
2022-10-21T11:07:25.508Z,98031.66
2022-10-21T11:09:30.434Z,98075.13
2022-10-21T11:11:42.152Z,98092.91
2022-10-21T11:13:51.450Z,98090.53
2022-10-21T11:16:11.545Z,98110.53
2022-10-21T11:18:25.646Z,98126.94
2022-10-21T11:20:41.267Z,98120.47
2022-10-21T11:22:55.831Z,98127.75
2022-10-21T11:25:05.536Z,98132.28
2022-10-21T11:27:23.268Z,98124.22
2022-10-21T11:29:38.540Z,98095.63
2022-10-21T11:32:10.716Z,98090.06
2022-10-21T11:34:36.590Z,98084.03
2022-10-21T11:36:50.074Z,98084.59
2022-10-21T11:39:29.588Z,98087.53
2022-10-21T11:41:43.273Z,98088.28
2022-10-21T11:44:02.405Z,98094.09
2022-10-21T11:46:19.334Z,98084.09
2022-10-21T11:48:36.861Z,98061.41
2022-10-21T11:51:06.454Z,98056.44
2022-10-21T11:53:27.751Z,98048.13
2022-10-21T11:55:43.310Z,98053.69
2022-10-21T11:57:56.340Z,98057.59
2022-10-21T12:00:09.110Z,98063.59
2022-10-21T12:02:22.337Z,98058.13
2022-10-21T12:04:47.236Z,98055.06
2022-10-21T12:07:11.103Z,98056.53
2022-10-21T12:09:23.282Z,98052.81
2022-10-21T12:11:35.806Z,98058.81
2022-10-21T12:13:45.729Z,98049.44
2022-10-21T12:15:54.569Z,98045.50
2022-10-21T12:18:02.065Z,98052.03
2022-10-21T12:20:11.872Z,98053.25
2022-10-21T12:22:19.343Z,98050.16
2022-10-21T12:24:32.251Z,98043.75
2022-10-21T12:26:44.603Z,98039.94
2022-10-21T12:28:58.088Z,98050.00
2022-10-21T12:31:07.929Z,98046.06
2022-10-21T12:33:20.403Z,98044.78
2022-10-21T12:35:45.884Z,98040.97
2022-10-21T12:38:28.088Z,98038.97
2022-10-21T12:40:43.003Z,98034.91
2022-10-21T12:42:50.301Z,98037.00
2022-10-21T12:44:56.142Z,98030.44
2022-10-21T12:47:05.709Z,98030.66
2022-10-21T12:49:26.057Z,98021.69
2022-10-21T12:51:34.821Z,98017.16
2022-10-21T12:56:30.279Z,98016.94
2022-10-21T12:58:39.572Z,98009.88
2022-10-21T13:01:00.400Z,98009.03
2022-10-21T13:03:07.969Z,98008.69
2022-10-21T13:05:12.776Z,98014.06
2022-10-21T13:07:40.658Z,98015.50
2022-10-21T13:10:26.474Z,98011.91
2022-10-21T13:12:34.345Z,98011.31
2022-10-21T13:14:45.735Z,98003.19
2022-10-21T13:16:50.686Z,98008.47
2022-10-21T13:18:56.087Z,97996.59
2022-10-21T13:21:01.916Z,98000.41
2022-10-21T13:23:41.666Z,98004.75
2022-10-21T13:25:52.269Z,98001.97
2022-10-21T13:28:20.794Z,97991.94
2022-10-21T13:30:53.651Z,97999.13
2022-10-21T13:33:07.105Z,97990.63
2022-10-21T13:35:34.561Z,97989.66
2022-10-21T13:37:42.722Z,97990.38
2022-10-21T13:39:47.643Z,97992.78
2022-10-21T13:42:06.665Z,97998.50
2022-10-21T13:44:31.781Z,97994.09
2022-10-21T13:46:43.667Z,97992.88
2022-10-21T13:48:51.599Z,97994.44
2022-10-21T13:50:59.516Z,97992.97
2022-10-21T13:53:36.412Z,97989.88
2022-10-21T13:55:44.023Z,97996.00
2022-10-21T13:57:53.809Z,97987.94
2022-10-21T14:00:07.732Z,97984.38
2022-10-21T14:02:26.721Z,97982.44
2022-10-21T14:04:34.420Z,97983.41
2022-10-21T14:06:43.198Z,97985.44
2022-10-21T14:08:50.035Z,97984.00
2022-10-21T14:10:56.193Z,97976.22
2022-10-21T14:13:04.083Z,97983.28
2022-10-21T14:15:18.169Z,97985.19
2022-10-21T14:17:28.721Z,97990.00
2022-10-21T14:19:37.831Z,97990.81
2022-10-21T14:21:48.903Z,97992.53
2022-10-21T14:23:54.555Z,97989.75
2022-10-21T14:26:07.303Z,97993.22
2022-10-21T14:28:18.937Z,97990.81
2022-10-21T14:30:26.883Z,97988.44
2022-10-21T14:32:32.169Z,97981.75
2022-10-21T14:34:38.881Z,97981.00
2022-10-21T14:37:09.434Z,97981.00
2022-10-21T14:39:23.031Z,97988.19
2022-10-21T14:41:35.534Z,97999.72
2022-10-21T14:43:44.941Z,98005.31
2022-10-21T14:45:53.323Z,98008.09
2022-10-21T14:48:05.397Z,98006.66
2022-10-21T14:50:22.324Z,98012.19
2022-10-21T14:52:34.780Z,98009.88
2022-10-21T14:54:45.693Z,98027.00
2022-10-21T14:56:58.002Z,98025.22
2022-10-21T14:59:19.165Z,98016.56
2022-10-21T15:01:25.471Z,98021.97
2022-10-21T15:03:40.771Z,98021.16
2022-10-21T15:05:49.831Z,98014.78
2022-10-21T15:07:56.934Z,98016.81
2022-10-21T15:10:15.834Z,98015.03
2022-10-21T15:12:25.298Z,98010.81
2022-10-21T15:14:34.974Z,98008.53
2022-10-21T15:16:40.328Z,98005.19
2022-10-21T15:18:49.001Z,97995.72
2022-10-21T15:20:57.178Z,97992.94
2022-10-21T15:23:12.850Z,98001.06
2022-10-21T15:25:25.444Z,97992.34
2022-10-21T15:27:52.616Z,98003.00
2022-10-21T15:30:06.567Z,97997.94
2022-10-21T15:32:20.029Z,97998.13
2022-10-21T15:34:26.282Z,98001.00
2022-10-21T15:36:31.063Z,98005.44
2022-10-21T15:38:35.793Z,98007.25
2022-10-21T15:40:40.647Z,98005.56
2022-10-21T15:42:46.407Z,98004.75
2022-10-21T15:44:52.709Z,98004.09
2022-10-21T15:47:02.670Z,98003.41
2022-10-21T15:49:18.172Z,98001.00
2022-10-21T15:51:23.118Z,98000.50
2022-10-21T15:53:27.992Z,98004.19
2022-10-21T15:55:38.051Z,98006.81
2022-10-21T15:57:44.625Z,98007.78
2022-10-21T15:59:50.193Z,98005.34
2022-10-21T16:01:56.079Z,98002.84
2022-10-21T16:04:04.298Z,98009.09
2022-10-21T16:06:09.266Z,98012.78
2022-10-21T16:08:15.384Z,98010.25
2022-10-21T16:10:23.736Z,98007.63
2022-10-21T16:12:30.468Z,98012.16
2022-10-21T16:14:35.273Z,98009.72
2022-10-21T16:16:42.110Z,98000.06
2022-10-21T16:18:46.893Z,97995.75
2022-10-21T16:20:55.119Z,97992.41
2022-10-21T16:23:02.977Z,97992.50
2022-10-21T16:25:09.299Z,98000.63
2022-10-21T16:27:26.352Z,97990.00
2022-10-21T16:29:36.106Z,97994.53
2022-10-21T16:31:41.059Z,97993.78
2022-10-21T16:33:46.340Z,97994.75
2022-10-21T16:35:54.048Z,98000.03
2022-10-21T16:37:58.985Z,98001.81
2022-10-21T16:40:04.084Z,98006.34
2022-10-21T16:42:08.657Z,98013.72
2022-10-21T16:44:13.417Z,98015.75
2022-10-21T16:46:25.123Z,98018.59
2022-10-21T16:48:30.083Z,98032.91
2022-10-21T16:50:40.747Z,98045.44
2022-10-21T16:52:48.246Z,98051.75
2022-10-21T16:54:53.080Z,98050.19
2022-10-21T16:56:57.809Z,98048.50
2022-10-21T16:59:02.583Z,98049.56
2022-10-21T17:01:08.795Z,98043.69
2022-10-21T17:03:14.055Z,98043.91
2022-10-21T17:05:18.898Z,98028.38
2022-10-21T17:07:23.645Z,98042.47
2022-10-21T17:09:31.015Z,98043.53
2022-10-21T17:11:38.846Z,98040.16
2022-10-21T17:13:44.131Z,98038.34
2022-10-21T17:15:48.642Z,98031.66
2022-10-21T17:17:53.381Z,98043.06
2022-10-21T17:19:58.176Z,98039.59
2022-10-21T17:22:03.013Z,98050.25
2022-10-21T17:24:08.369Z,98052.88
2022-10-21T17:26:15.844Z,98052.13
2022-10-21T17:28:20.799Z,98043.50
2022-10-21T17:30:26.830Z,98045.28
2022-10-21T17:32:31.595Z,98050.75
2022-10-21T17:34:40.024Z,98042.03
2022-10-21T17:36:44.745Z,98047.41
2022-10-21T17:38:50.001Z,98044.16
2022-10-21T17:40:54.715Z,98042.47
2022-10-21T17:43:02.250Z,98039.00
2022-10-21T17:45:07.975Z,98041.75
2022-10-21T17:47:14.899Z,98040.78
2022-10-21T17:49:19.636Z,98047.13
2022-10-21T17:51:25.864Z,98053.31
2022-10-21T17:53:32.389Z,98061.41
2022-10-21T17:55:37.160Z,98064.38
2022-10-21T17:57:42.011Z,98062.03
2022-10-21T17:59:52.273Z,98053.41
2022-10-21T18:01:57.061Z,98060.66
2022-10-21T18:04:02.040Z,98058.25
2022-10-21T18:06:09.855Z,98059.09
2022-10-21T18:08:14.573Z,98050.47
2022-10-21T18:10:19.469Z,98056.59
2022-10-21T18:12:24.668Z,98051.34
2022-10-21T18:14:29.373Z,98052.69
2022-10-21T18:16:37.116Z,98047.34
2022-10-21T18:20:47.739Z,98047.13
2022-10-21T18:22:54.548Z,98042.09
2022-10-21T18:24:59.274Z,98034.00
2022-10-21T18:27:04.013Z,98039.25
2022-10-21T18:29:08.828Z,98038.28
2022-10-21T18:31:15.545Z,98035.44
2022-10-21T18:33:23.149Z,98029.34
2022-10-21T18:35:28.388Z,98029.56
2022-10-21T18:37:34.123Z,98026.75
2022-10-21T18:39:38.889Z,98028.41
2022-10-21T18:41:44.392Z,98035.34
2022-10-21T18:43:50.164Z,98031.88
2022-10-21T18:45:54.916Z,98012.56
2022-10-21T18:47:59.758Z,98008.22
2022-10-21T18:50:09.272Z,98002.13
2022-10-21T18:52:14.189Z,98004.88
2022-10-21T18:54:18.954Z,97998.06
2022-10-21T18:56:25.786Z,98004.97
2022-10-21T18:58:33.100Z,97998.78
2022-10-21T19:00:37.969Z,97998.66
2022-10-21T19:02:42.744Z,97995.44
2022-10-21T19:04:47.670Z,97996.38
2022-10-21T19:06:55.051Z,97998.06
2022-10-21T19:09:01.206Z,98002.56
2022-10-21T19:11:06.093Z,98006.03
2022-10-21T19:13:10.839Z,98020.34
2022-10-21T19:15:15.641Z,98024.63
2022-10-21T19:17:20.476Z,98024.53
2022-10-21T19:19:38.566Z,98011.50
2022-10-21T19:21:44.881Z,98014.13
2022-10-21T19:23:52.629Z,98008.88
2022-10-21T19:25:57.417Z,98019.38
2022-10-21T19:28:03.374Z,98014.97
2022-10-21T19:30:09.022Z,98019.28
2022-10-21T19:32:16.796Z,98021.91
2022-10-21T19:34:23.162Z,98024.41
2022-10-21T19:36:30.995Z,98023.56
2022-10-21T19:38:44.118Z,98017.78
2022-10-21T19:40:52.385Z,98025.16
2022-10-21T19:42:57.172Z,98030.72
2022-10-21T19:45:02.107Z,98027.56
2022-10-21T19:47:06.981Z,98028.81
2022-10-21T19:49:14.270Z,98030.00
2022-10-21T19:51:20.873Z,98026.53
2022-10-21T19:53:27.846Z,98030.00
2022-10-21T19:55:32.546Z,98031.56
2022-10-21T19:57:40.039Z,98040.19
2022-10-21T19:59:44.790Z,98039.22
2022-10-21T20:01:49.663Z,98047.13
2022-10-21T20:03:55.989Z,98040.28
2022-10-21T20:06:00.751Z,98041.22
2022-10-21T20:08:05.515Z,98051.06
2022-10-21T20:10:11.374Z,98060.75
2022-10-21T20:12:16.096Z,98054.78
2022-10-21T20:14:23.692Z,98051.06
2022-10-21T20:16:31.072Z,98056.31
2022-10-21T20:18:35.945Z,98063.16
2022-10-21T20:20:43.837Z,98062.03
2022-10-21T20:22:48.626Z,98064.75
2022-10-21T20:24:54.235Z,98064.75
2022-10-21T20:27:01.403Z,98066.44
2022-10-21T20:29:07.414Z,98069.91
2022-10-21T20:31:16.645Z,98064.88
2022-10-21T20:33:21.351Z,98069.38
2022-10-21T20:35:26.291Z,98068.75
2022-10-21T20:37:31.111Z,98069.47
2022-10-21T20:39:35.871Z,98061.59
2022-10-21T20:41:40.874Z,98067.78
2022-10-21T20:43:46.578Z,98064.31
2022-10-21T20:45:51.297Z,98073.16
2022-10-21T20:47:58.772Z,98065.38
2022-10-21T20:50:03.460Z,98061.38
2022-10-21T20:52:08.210Z,98066.72
2022-10-21T20:54:16.169Z,98072.91
2022-10-21T20:56:22.062Z,98071.25
2022-10-21T20:58:27.182Z,98069.56
2022-10-21T21:00:31.925Z,98072.47
2022-10-21T21:02:36.653Z,98072.47
2022-10-21T21:04:44.039Z,98077.81
2022-10-21T21:06:50.044Z,98080.66
2022-10-21T21:09:22.485Z,98067.63
2022-10-21T21:11:21.009Z,98066.13
2022-10-21T21:13:25.846Z,98059.19
2022-10-21T21:15:30.611Z,98059.13
2022-10-21T21:17:35.393Z,98054.06
2022-10-21T21:19:43.877Z,98057.81
2022-10-21T21:21:48.575Z,98059.81
2022-10-21T21:23:53.865Z,98060.84
2022-10-21T21:26:03.745Z,98054.84
2022-10-21T21:28:08.510Z,98061.88
2022-10-21T21:30:14.308Z,98060.22
2022-10-21T21:32:19.080Z,98058.34
2022-10-21T21:34:23.881Z,98057.38
2022-10-21T21:36:34.172Z,98060.84
2022-10-21T21:38:38.961Z,98059.25
2022-10-21T21:40:46.374Z,98044.34
2022-10-21T21:42:51.220Z,98039.97
2022-10-21T21:44:55.978Z,98040.88
2022-10-21T21:47:00.782Z,98038.25
2022-10-21T21:49:07.391Z,98042.59
2022-10-21T21:51:12.856Z,98042.59
2022-10-21T21:53:24.973Z,98033.03
2022-10-21T21:55:32.478Z,98035.97
2022-10-21T21:57:37.229Z,98038.66
2022-10-21T21:59:42.022Z,98035.31
2022-10-21T22:01:46.744Z,98035.50
2022-10-21T22:03:53.055Z,98042.53
2022-10-21T22:05:57.752Z,98041.59
2022-10-21T22:08:03.501Z,98038.88
2022-10-21T22:10:11.797Z,98037.91
2022-10-21T22:12:17.845Z,98038.97
2022-10-21T22:14:23.537Z,98035.81
2022-10-21T22:16:31.734Z,98051.75
2022-10-21T22:18:36.578Z,98056.25
2022-10-21T22:20:41.602Z,98062.53
2022-10-21T22:22:46.692Z,98062.66
2022-10-21T22:24:51.440Z,98065.34
2022-10-21T22:26:58.822Z,98066.38
2022-10-21T22:29:03.598Z,98078.84
2022-10-21T22:31:10.863Z,98076.31
2022-10-21T22:33:15.638Z,98077.19
2022-10-21T22:35:20.511Z,98086.81
2022-10-21T22:37:25.615Z,98084.19
2022-10-21T22:39:30.442Z,98079.59
2022-10-21T22:41:35.311Z,98078.66
2022-10-21T22:43:43.085Z,98072.47
2022-10-21T22:45:48.214Z,98061.97
2022-10-21T22:47:53.141Z,98063.69
2022-10-21T22:49:57.929Z,98066.19
2022-10-21T22:52:02.715Z,98068.72
2022-10-21T22:54:15.144Z,98073.78
2022-10-21T22:56:30.278Z,98065.78
2022-10-21T22:58:35.160Z,98068.22
2022-10-21T23:00:42.858Z,98070.84
2022-10-21T23:02:47.624Z,98072.41
2022-10-21T23:04:52.348Z,98068.13
2022-10-21T23:06:57.161Z,98066.13
2022-10-21T23:09:02.836Z,98061.72
2022-10-21T23:11:07.926Z,98066.88
2022-10-21T23:13:12.657Z,98072.13
2022-10-21T23:15:17.364Z,98069.41
2022-10-21T23:17:25.691Z,98059.66
2022-10-21T23:19:30.496Z,98063.94
2022-10-21T23:21:35.264Z,98064.69
2022-10-21T23:23:40.060Z,98068.91
2022-10-21T23:25:44.803Z,98065.25
2022-10-21T23:27:49.552Z,98066.22
2022-10-21T23:29:54.243Z,98068.91
2022-10-21T23:31:59.697Z,98058.72
2022-10-21T23:34:07.120Z,98068.47
2022-10-21T23:36:12.004Z,98069.31
2022-10-21T23:38:16.724Z,98068.38
2022-10-21T23:40:21.636Z,98067.31
2022-10-21T23:42:28.003Z,98062.84
2022-10-21T23:44:32.850Z,98054.75
2022-10-21T23:46:38.086Z,98063.25
2022-10-21T23:48:42.637Z,98058.97
2022-10-21T23:50:50.021Z,98051.19
2022-10-21T23:52:54.797Z,98046.78
2022-10-21T23:54:59.685Z,98059.59
2022-10-21T23:57:04.490Z,98058.56
2022-10-21T23:59:09.406Z,98058.66
